Time;durP1;ratioP1;P1;durP2;ratioP2;P2;SDS_P1;SDS_P2;PMS_P1;PMS_P2;Temp;Humidity;BMP_temperature;BMP_pressure;BME280_temperature;BME280_humidity;BME280_pressure;Samples;Min_cycle;Max_cycle;Signal;HPM_P1;HPM_P2
2023/08/16 00:01:49;;;;;;;;;0.20;0.20;;;;;;;;5052317;28;8838;-85
2023/08/16 00:04:16;;;;;;;;;2.80;1.00;;;;;;;;5051738;28;9030;-87
2023/08/16 00:06:43;;;;;;;;;1.60;1.60;;;;;;;;5049876;28;8836;-87
2023/08/16 00:09:12;;;;;;;;;2.60;2.60;;;;;;;;5050442;28;8858;-88
2023/08/16 00:11:40;;;;;;;;;3.60;1.80;;;;;;;;5049549;28;8967;-88
2023/08/16 00:14:07;;;;;;;;;3.00;2.60;;;;;;;;5050284;28;8842;-87
2023/08/16 00:16:34;;;;;;;;;2.80;2.20;;;;;;;;5049959;28;8840;-87
2023/08/16 00:19:01;;;;;;;;;2.60;2.60;;;;;;;;5055920;28;8866;-88
2023/08/16 00:21:31;;;;;;;;;1.00;1.00;;;;;;;;5058681;28;8858;-89
2023/08/16 00:23:58;;;;;;;;;2.20;1.00;;;;;;;;5057475;28;8840;-87
2023/08/16 00:26:27;;;;;;;;;2.00;2.00;;;;;;;;5053458;28;8874;-86
2023/08/16 00:28:55;;;;;;;;;2.40;2.40;;;;;;;;5049891;28;8864;-86
2023/08/16 00:31:23;;;;;;;;;1.20;1.20;;;;;;;;5061336;28;8761;-88
2023/08/16 00:33:50;;;;;;;;;0.40;0.40;;;;;;;;5050588;28;8843;-90
2023/08/16 00:36:17;;;;;;;;;1.80;1.80;;;;;;;;5049700;28;8966;-84
2023/08/16 00:38:44;;;;;;;;;2.80;2.80;;;;;;;;5049909;28;8855;-87
2023/08/16 00:41:12;;;;;;;;;3.20;1.40;;;;;;;;5049313;28;8855;-88
2023/08/16 00:43:41;;;;;;;;;2.20;2.20;;;;;;;;5049869;28;8844;-90
2023/08/16 00:46:11;;;;;;;;;3.60;2.20;;;;;;;;5049734;28;8840;-89
2023/08/16 00:48:43;;;;;;;;;2.20;2.20;;;;;;;;5049889;28;8910;-87
2023/08/16 00:51:11;;;;;;;;;2.80;2.80;;;;;;;;5052209;28;8853;-88
2023/08/16 00:53:40;;;;;;;;;2.40;2.00;;;;;;;;5052857;28;8967;-84
2023/08/16 00:56:08;;;;;;;;;2.80;2.80;;;;;;;;5054875;28;8841;-87
2023/08/16 00:58:35;;;;;;;;;2.60;2.60;;;;;;;;5057164;28;8844;-88
2023/08/16 01:01:04;;;;;;;;;3.00;3.00;;;;;;;;5060758;28;8795;-88
2023/08/16 01:03:31;;;;;;;;;2.80;1.80;;;;;;;;5061321;28;8934;-89
2023/08/16 01:05:58;;;;;;;;;2.40;2.40;;;;;;;;5053979;28;8848;-87
2023/08/16 01:08:26;;;;;;;;;2.80;2.80;;;;;;;;5050909;28;8960;-88
2023/08/16 01:10:59;;;;;;;;;0.80;0.80;;;;;;;;5049319;28;8848;-87
2023/08/16 01:13:29;;;;;;;;;1.20;1.20;;;;;;;;5049039;28;8828;-85
2023/08/16 01:15:57;;;;;;;;;1.20;1.20;;;;;;;;5048936;28;8902;-86
2023/08/16 01:18:27;;;;;;;;;1.60;1.60;;;;;;;;5048479;28;8993;-87
2023/08/16 01:20:56;;;;;;;;;1.00;1.00;;;;;;;;5048754;28;8870;-82
2023/08/16 01:23:30;;;;;;;;;2.20;2.20;;;;;;;;5048062;28;8848;-87
2023/08/16 01:26:06;;;;;;;;;1.20;1.20;;;;;;;;5048856;28;8836;-84
2023/08/16 01:28:38;;;;;;;;;2.20;2.20;;;;;;;;5040518;28;8886;-85
2023/08/16 01:31:06;;;;;;;;;2.40;2.40;;;;;;;;5051767;28;9596;-85
2023/08/16 01:33:33;;;;;;;;;1.80;1.80;;;;;;;;5062913;28;8850;-83
2023/08/16 01:36:00;;;;;;;;;1.00;1.00;;;;;;;;5059828;28;8864;-83
2023/08/16 01:38:28;;;;;;;;;2.20;2.20;;;;;;;;5056051;28;8844;-82
2023/08/16 01:41:00;;;;;;;;;1.80;1.80;;;;;;;;5056056;28;8824;-84
2023/08/16 01:43:27;;;;;;;;;2.80;2.80;;;;;;;;5053674;28;8857;-84
2023/08/16 01:45:57;;;;;;;;;1.80;1.80;;;;;;;;5051729;28;8870;-83
2023/08/16 01:48:25;;;;;;;;;2.40;2.40;;;;;;;;5051551;28;9334;-85
2023/08/16 01:50:53;;;;;;;;;3.00;1.80;;;;;;;;5063955;28;8844;-86
2023/08/16 01:53:20;;;;;;;;;0.80;0.80;;;;;;;;5052354;28;8856;-85
2023/08/16 01:55:48;;;;;;;;;1.80;1.80;;;;;;;;5051823;28;9757;-86
2023/08/16 01:58:16;;;;;;;;;3.80;1.80;;;;;;;;5052708;28;8852;-85
2023/08/16 02:00:43;;;;;;;;;2.40;2.40;;;;;;;;5051829;28;8788;-86
2023/08/16 02:03:12;;;;;;;;;1.20;1.20;;;;;;;;5052724;28;8844;-85
2023/08/16 02:05:39;;;;;;;;;3.60;1.00;;;;;;;;5052069;28;8860;-86
2023/08/16 02:08:06;;;;;;;;;2.20;2.20;;;;;;;;5052248;28;8966;-84
2023/08/16 02:10:33;;;;;;;;;2.20;2.20;;;;;;;;5052750;28;8955;-86
2023/08/16 02:13:01;;;;;;;;;2.20;2.20;;;;;;;;5056935;28;8987;-86
2023/08/16 02:15:28;;;;;;;;;3.40;1.80;;;;;;;;5059309;28;8878;-85
2023/08/16 02:17:55;;;;;;;;;1.80;1.80;;;;;;;;5052562;28;8872;-83
2023/08/16 02:20:24;;;;;;;;;2.20;1.80;;;;;;;;5053072;28;8821;-86
2023/08/16 02:22:51;;;;;;;;;2.20;1.80;;;;;;;;5051733;28;8859;-86
2023/08/16 02:25:18;;;;;;;;;4.00;2.00;;;;;;;;5052038;28;8848;-87
2023/08/16 02:27:45;;;;;;;;;1.40;1.40;;;;;;;;5052158;28;8846;-86
2023/08/16 02:30:13;;;;;;;;;1.40;1.40;;;;;;;;5053454;28;8829;-86
2023/08/16 02:32:40;;;;;;;;;1.20;1.20;;;;;;;;5055197;28;8824;-86
2023/08/16 02:35:08;;;;;;;;;2.00;2.00;;;;;;;;5055747;28;8938;-84
2023/08/16 02:37:37;;;;;;;;;2.40;2.40;;;;;;;;5055373;28;8848;-84
2023/08/16 02:40:05;;;;;;;;;1.20;1.20;;;;;;;;5054886;28;8848;-82
2023/08/16 02:42:32;;;;;;;;;1.20;0.20;;;;;;;;5053168;28;8829;-85
2023/08/16 02:44:59;;;;;;;;;1.20;1.20;;;;;;;;5051884;28;8852;-85
2023/08/16 02:47:26;;;;;;;;;2.40;2.40;;;;;;;;5051975;28;8872;-83
2023/08/16 02:49:53;;;;;;;;;2.80;2.80;;;;;;;;5049958;28;8872;-85
2023/08/16 02:52:21;;;;;;;;;2.00;2.00;;;;;;;;5058060;28;8888;-86
2023/08/16 02:54:49;;;;;;;;;2.80;2.00;;;;;;;;5053122;28;8856;-85
2023/08/16 02:57:18;;;;;;;;;1.20;1.20;;;;;;;;5053188;28;8844;-86
2023/08/16 02:59:47;;;;;;;;;0.40;0.40;;;;;;;;5051376;28;8843;-87
2023/08/16 03:02:14;;;;;;;;;3.80;2.40;;;;;;;;5050676;28;8814;-87
2023/08/16 03:04:41;;;;;;;;;1.60;1.60;;;;;;;;5050725;28;8856;-85
2023/08/16 03:07:09;;;;;;;;;1.80;1.80;;;;;;;;5051093;28;8844;-86
2023/08/16 03:09:36;;;;;;;;;1.80;1.80;;;;;;;;5050918;28;8836;-84
2023/08/16 03:12:06;;;;;;;;;1.00;1.00;;;;;;;;5053046;28;8852;-85
2023/08/16 03:14:34;;;;;;;;;1.80;1.80;;;;;;;;5052377;28;8970;-84
2023/08/16 03:17:01;;;;;;;;;3.40;2.00;;;;;;;;5053005;28;8864;-85
2023/08/16 03:19:28;;;;;;;;;1.40;1.40;;;;;;;;5052862;28;8846;-86
2023/08/16 03:21:56;;;;;;;;;1.40;1.40;;;;;;;;5051385;28;8860;-85
2023/08/16 03:24:23;;;;;;;;;2.40;2.40;;;;;;;;5050388;28;9085;-82
2023/08/16 03:26:51;;;;;;;;;1.80;1.80;;;;;;;;5050386;28;8858;-82
2023/08/16 03:29:19;;;;;;;;;2.20;2.20;;;;;;;;5052458;28;8852;-82
2023/08/16 03:31:47;;;;;;;;;2.60;2.60;;;;;;;;5051448;28;8808;-83
2023/08/16 03:34:15;;;;;;;;;1.80;1.80;;;;;;;;5050991;28;8854;-84
2023/08/16 03:36:42;;;;;;;;;3.00;1.20;;;;;;;;5051538;28;8848;-87
2023/08/16 03:39:10;;;;;;;;;3.40;2.20;;;;;;;;5051079;28;8824;-86
2023/08/16 03:41:38;;;;;;;;;1.80;1.80;;;;;;;;5050419;28;8886;-87
2023/08/16 03:44:07;;;;;;;;;1.80;1.80;;;;;;;;5050171;28;8864;-87
2023/08/16 03:46:35;;;;;;;;;2.00;2.00;;;;;;;;5049561;28;8852;-84
2023/08/16 03:49:03;;;;;;;;;3.00;3.00;;;;;;;;5049615;28;8832;-87
2023/08/16 03:51:30;;;;;;;;;2.20;2.20;;;;;;;;5049189;28;8859;-85
2023/08/16 03:53:57;;;;;;;;;2.80;2.60;;;;;;;;5050216;28;8856;-87
2023/08/16 03:56:25;;;;;;;;;3.20;3.20;;;;;;;;5049699;28;8848;-87
2023/08/16 03:58:52;;;;;;;;;1.80;1.80;;;;;;;;5049619;28;8971;-88
2023/08/16 04:01:19;;;;;;;;;0.60;0.60;;;;;;;;5049363;28;8781;-87
2023/08/16 04:03:48;;;;;;;;;3.60;3.60;;;;;;;;5051200;28;8844;-88
2023/08/16 04:06:19;;;;;;;;;2.00;2.00;;;;;;;;5057644;28;8894;-84
2023/08/16 04:08:46;;;;;;;;;3.20;1.60;;;;;;;;5057483;28;9651;-79
2023/08/16 04:11:14;;;;;;;;;3.20;2.00;;;;;;;;5051782;28;8870;-79
2023/08/16 04:13:41;;;;;;;;;1.40;1.40;;;;;;;;5051168;28;8858;-79
2023/08/16 04:16:08;;;;;;;;;2.80;2.80;;;;;;;;5051149;28;8876;-76
2023/08/16 04:18:35;;;;;;;;;2.80;2.80;;;;;;;;5052055;28;8856;-81
2023/08/16 04:21:04;;;;;;;;;2.00;2.00;;;;;;;;5049608;28;8860;-75
2023/08/16 04:23:31;;;;;;;;;2.00;2.00;;;;;;;;5049069;28;8836;-76
2023/08/16 04:25:58;;;;;;;;;2.00;2.00;;;;;;;;5048640;28;8970;-75
2023/08/16 04:28:25;;;;;;;;;3.00;3.00;;;;;;;;5048578;28;8980;-75
2023/08/16 04:30:52;;;;;;;;;1.80;1.80;;;;;;;;5048306;28;8825;-74
2023/08/16 04:33:19;;;;;;;;;3.20;3.20;;;;;;;;5048162;28;8844;-75
2023/08/16 04:35:46;;;;;;;;;2.60;2.60;;;;;;;;5046636;28;9630;-76
2023/08/16 04:38:16;;;;;;;;;2.60;2.60;;;;;;;;5048028;28;8836;-75
2023/08/16 04:40:43;;;;;;;;;2.60;2.60;;;;;;;;5047096;28;8848;-76
2023/08/16 04:43:11;;;;;;;;;2.60;2.20;;;;;;;;5047563;28;8875;-75
2023/08/16 04:45:38;;;;;;;;;1.00;1.00;;;;;;;;5047504;28;8852;-75
2023/08/16 04:48:06;;;;;;;;;3.80;2.20;;;;;;;;5049030;28;8870;-76
2023/08/16 04:50:33;;;;;;;;;3.00;3.00;;;;;;;;5049928;28;8840;-77
2023/08/16 04:53:00;;;;;;;;;2.00;2.00;;;;;;;;5050752;28;8840;-75
2023/08/16 04:55:29;;;;;;;;;3.40;1.00;;;;;;;;5049168;28;8893;-76
2023/08/16 04:57:56;;;;;;;;;2.00;2.00;;;;;;;;5047836;28;8890;-76
2023/08/16 05:00:23;;;;;;;;;2.80;2.80;;;;;;;;5046842;28;8848;-76
2023/08/16 05:02:52;;;;;;;;;3.00;1.20;;;;;;;;5047127;28;8855;-79
2023/08/16 05:05:19;;;;;;;;;3.00;3.00;;;;;;;;5047670;28;8954;-75
2023/08/16 05:07:46;;;;;;;;;3.60;2.00;;;;;;;;5046580;28;8866;-76
2023/08/16 05:10:14;;;;;;;;;1.20;1.20;;;;;;;;5047481;28;9011;-77
2023/08/16 05:12:43;;;;;;;;;3.00;3.00;;;;;;;;5046735;28;8868;-74
2023/08/16 05:15:11;;;;;;;;;0.80;0.80;;;;;;;;5047597;28;8971;-74
2023/08/16 05:17:38;;;;;;;;;2.00;2.00;;;;;;;;5046635;28;8864;-74
2023/08/16 05:20:07;;;;;;;;;5.00;3.50;;;;;;;;5047808;28;8864;-76
2023/08/16 05:22:34;;;;;;;;;2.80;2.60;;;;;;;;5046952;28;8863;-74
2023/08/16 05:25:01;;;;;;;;;2.80;2.80;;;;;;;;5047443;28;8844;-79
2023/08/16 05:27:28;;;;;;;;;3.20;2.60;;;;;;;;5046558;28;8856;-79
2023/08/16 05:29:57;;;;;;;;;2.40;2.40;;;;;;;;5047625;28;8848;-80
2023/08/16 05:32:25;;;;;;;;;2.00;2.00;;;;;;;;5046583;28;8788;-78
2023/08/16 05:34:53;;;;;;;;;2.80;2.80;;;;;;;;5047536;28;8866;-77
2023/08/16 05:37:20;;;;;;;;;3.00;3.00;;;;;;;;5047486;28;8852;-78
2023/08/16 05:39:49;;;;;;;;;2.00;2.00;;;;;;;;5048050;28;8907;-80
2023/08/16 05:42:16;;;;;;;;;3.60;2.20;;;;;;;;5049110;28;8848;-79
2023/08/16 05:44:43;;;;;;;;;2.20;2.20;;;;;;;;5049961;28;8848;-78
2023/08/16 05:47:14;;;;;;;;;3.00;3.00;;;;;;;;5050698;28;8955;-77
2023/08/16 05:49:41;;;;;;;;;4.00;4.00;;;;;;;;5050661;28;8833;-77
2023/08/16 05:52:08;;;;;;;;;3.25;3.00;;;;;;;;5051686;28;8844;-78
2023/08/16 05:54:36;;;;;;;;;3.80;2.80;;;;;;;;5049604;28;8890;-77
2023/08/16 05:57:03;;;;;;;;;2.60;1.00;;;;;;;;5047854;28;8848;-78
2023/08/16 05:59:30;;;;;;;;;3.00;3.00;;;;;;;;5047401;28;8877;-77
2023/08/16 06:01:57;;;;;;;;;2.80;2.80;;;;;;;;5046855;28;9623;-76
2023/08/16 06:04:26;;;;;;;;;3.40;2.40;;;;;;;;5047056;28;8864;-76
2023/08/16 06:06:53;;;;;;;;;2.00;2.00;;;;;;;;5045820;28;8856;-77
2023/08/16 06:09:20;;;;;;;;;2.60;2.60;;;;;;;;5047198;28;8963;-77
2023/08/16 06:11:48;;;;;;;;;6.00;4.00;;;;;;;;5046608;28;8866;-77
2023/08/16 06:14:15;;;;;;;;;2.00;2.00;;;;;;;;5047061;28;8905;-77
2023/08/16 06:16:42;;;;;;;;;2.80;2.80;;;;;;;;5049757;28;8991;-78
2023/08/16 06:19:10;;;;;;;;;2.60;2.20;;;;;;;;5050626;28;8886;-76
2023/08/16 06:21:39;;;;;;;;;2.00;2.00;;;;;;;;5049717;28;8875;-77
2023/08/16 06:24:08;;;;;;;;;1.60;1.40;;;;;;;;5051220;28;8841;-78
2023/08/16 06:26:35;;;;;;;;;2.40;2.40;;;;;;;;5051513;28;8848;-74
2023/08/16 06:29:02;;;;;;;;;3.20;3.20;;;;;;;;5051508;28;8832;-74
2023/08/16 06:31:30;;;;;;;;;2.00;1.80;;;;;;;;5050303;28;8823;-73
2023/08/16 06:33:57;;;;;;;;;4.00;2.40;;;;;;;;5050353;28;8875;-77
2023/08/16 06:36:24;;;;;;;;;3.00;2.80;;;;;;;;5049936;28;8878;-74
2023/08/16 06:38:53;;;;;;;;;3.00;3.00;;;;;;;;5049959;28;8836;-76
2023/08/16 06:41:20;;;;;;;;;3.20;1.20;;;;;;;;5050188;28;8844;-78
2023/08/16 06:43:48;;;;;;;;;5.60;4.00;;;;;;;;5049541;28;9598;-75
2023/08/16 06:46:15;;;;;;;;;4.20;4.20;;;;;;;;5050111;28;8912;-77
2023/08/16 06:48:42;;;;;;;;;1.80;1.80;;;;;;;;5049427;28;8834;-77
2023/08/16 06:51:09;;;;;;;;;3.00;2.00;;;;;;;;5050474;28;8878;-76
2023/08/16 06:53:39;;;;;;;;;2.20;2.20;;;;;;;;5049792;28;8884;-74
2023/08/16 06:56:07;;;;;;;;;3.80;3.00;;;;;;;;5050045;28;8852;-76
2023/08/16 06:58:35;;;;;;;;;2.60;2.60;;;;;;;;5048870;28;8844;-75
2023/08/16 07:01:06;;;;;;;;;3.40;3.40;;;;;;;;5049425;28;8803;-75
2023/08/16 07:03:33;;;;;;;;;2.20;1.40;;;;;;;;5049106;28;8840;-79
2023/08/16 07:06:00;;;;;;;;;1.40;1.40;;;;;;;;5049783;28;9667;-74
2023/08/16 07:08:27;;;;;;;;;4.20;4.20;;;;;;;;5048970;28;8840;-75
2023/08/16 07:10:55;;;;;;;;;4.00;4.00;;;;;;;;5049628;28;8852;-76
2023/08/16 07:13:23;;;;;;;;;4.00;4.00;;;;;;;;5049768;28;8864;-77
2023/08/16 07:15:50;;;;;;;;;3.00;3.00;;;;;;;;5049863;28;8877;-76
2023/08/16 07:18:17;;;;;;;;;3.00;3.00;;;;;;;;5050568;28;8844;-80
2023/08/16 07:20:45;;;;;;;;;4.40;3.20;;;;;;;;5050445;28;8868;-74
2023/08/16 07:23:12;;;;;;;;;5.20;4.00;;;;;;;;5052698;28;8852;-76
2023/08/16 07:25:40;;;;;;;;;5.40;4.00;;;;;;;;5052755;28;8852;-79
2023/08/16 07:28:07;;;;;;;;;5.00;5.00;;;;;;;;5053835;28;8868;-80
2023/08/16 07:30:38;;;;;;;;;3.80;3.80;;;;;;;;5052533;28;9591;-77
2023/08/16 07:33:06;;;;;;;;;8.60;5.00;;;;;;;;5051250;28;8883;-84
2023/08/16 07:35:33;;;;;;;;;4.40;4.40;;;;;;;;5049986;28;8994;-81
2023/08/16 07:38:04;;;;;;;;;6.20;5.00;;;;;;;;5049234;28;8902;-81
2023/08/16 07:40:32;;;;;;;;;6.00;4.80;;;;;;;;5048679;28;9338;-83
2023/08/16 07:42:59;;;;;;;;;4.00;4.00;;;;;;;;5048378;28;8854;-80
2023/08/16 07:45:26;;;;;;;;;4.20;4.00;;;;;;;;5048511;28;8886;-83
2023/08/16 07:47:55;;;;;;;;;7.00;4.40;;;;;;;;5048888;28;8850;-83
2023/08/16 07:50:22;;;;;;;;;5.60;5.60;;;;;;;;5049322;28;8844;-74
2023/08/16 07:52:49;;;;;;;;;4.00;4.00;;;;;;;;5050904;28;8862;-82
2023/08/16 07:55:17;;;;;;;;;3.20;3.20;;;;;;;;5049585;28;9594;-83
2023/08/16 07:57:45;;;;;;;;;5.20;4.00;;;;;;;;5049919;28;8833;-80
2023/08/16 08:00:14;;;;;;;;;4.60;4.60;;;;;;;;5050504;28;8840;-84
2023/08/16 08:02:41;;;;;;;;;5.60;5.60;;;;;;;;5050862;28;8828;-81
2023/08/16 08:05:10;;;;;;;;;5.00;5.00;;;;;;;;5051380;28;8836;-85
2023/08/16 08:07:37;;;;;;;;;6.60;6.00;;;;;;;;5050307;28;8856;-79
2023/08/16 08:10:07;;;;;;;;;7.40;5.80;;;;;;;;5049677;28;8951;-78
2023/08/16 08:12:35;;;;;;;;;6.80;6.40;;;;;;;;5041881;28;8856;-77
2023/08/16 08:15:02;;;;;;;;;5.20;5.20;;;;;;;;5048415;28;9604;-82
2023/08/16 08:17:29;;;;;;;;;7.00;7.00;;;;;;;;5048978;28;8982;-82
2023/08/16 08:19:56;;;;;;;;;3.40;2.20;;;;;;;;5048599;28;8848;-84
2023/08/16 08:22:25;;;;;;;;;6.60;6.60;;;;;;;;5048336;28;8860;-81
2023/08/16 08:24:52;;;;;;;;;7.40;5.60;;;;;;;;5048291;28;9732;-85
2023/08/16 08:27:19;;;;;;;;;7.40;5.60;;;;;;;;5049224;28;8889;-74
2023/08/16 08:29:46;;;;;;;;;6.60;4.00;;;;;;;;5054620;28;8933;-85
2023/08/16 08:32:14;;;;;;;;;7.20;7.20;;;;;;;;5050581;28;8913;-79
2023/08/16 08:34:41;;;;;;;;;5.00;5.00;;;;;;;;5048501;28;8859;-87
2023/08/16 08:37:08;;;;;;;;;4.20;4.20;;;;;;;;5048034;28;8915;-91
2023/08/16 08:39:37;;;;;;;;;3.80;3.40;;;;;;;;5048085;28;8845;-77
2023/08/16 08:42:05;;;;;;;;;8.20;4.60;;;;;;;;5047760;28;8871;-83
2023/08/16 08:44:34;;;;;;;;;3.60;3.60;;;;;;;;5048113;28;9046;-86
2023/08/16 08:47:05;;;;;;;;;7.00;6.00;;;;;;;;5048149;28;8836;-83
2023/08/16 08:49:37;;;;;;;;;5.20;5.20;;;;;;;;5048780;28;8867;-78
2023/08/16 08:52:05;;;;;;;;;5.00;5.00;;;;;;;;5048622;28;8858;-81
2023/08/16 08:54:33;;;;;;;;;4.80;4.80;;;;;;;;5051130;28;8844;-83
2023/08/16 08:57:02;;;;;;;;;6.00;4.20;;;;;;;;5051993;28;8883;-87
2023/08/16 08:59:30;;;;;;;;;7.00;7.00;;;;;;;;5054706;28;8840;-88
2023/08/16 09:01:59;;;;;;;;;5.40;5.40;;;;;;;;5053556;28;8874;-88
2023/08/16 09:04:26;;;;;;;;;3.00;3.00;;;;;;;;5053190;28;8855;-87
2023/08/16 09:06:53;;;;;;;;;3.00;3.00;;;;;;;;5045940;28;8860;-86
2023/08/16 09:09:23;;;;;;;;;3.20;2.20;;;;;;;;5053806;28;9186;-83
2023/08/16 09:11:50;;;;;;;;;4.40;4.40;;;;;;;;5052753;28;8879;-80
2023/08/16 09:14:19;;;;;;;;;3.00;3.00;;;;;;;;5052817;28;8844;-88
2023/08/16 09:16:47;;;;;;;;;5.00;3.40;;;;;;;;5051760;28;8840;-88
2023/08/16 09:19:15;;;;;;;;;4.00;2.00;;;;;;;;5051324;28;8964;-87
2023/08/16 09:21:42;;;;;;;;;2.60;2.60;;;;;;;;5050606;28;8860;-75
2023/08/16 09:24:09;;;;;;;;;2.00;2.00;;;;;;;;5048812;28;8874;-89
2023/08/16 09:26:37;;;;;;;;;3.00;3.00;;;;;;;;5048428;28;8836;-83
2023/08/16 09:29:06;;;;;;;;;3.00;3.00;;;;;;;;5047841;28;8878;-88
2023/08/16 09:31:41;;;;;;;;;2.00;2.00;;;;;;;;5047994;28;8781;-85
2023/08/16 09:34:09;;;;;;;;;2.00;2.00;;;;;;;;5052641;28;8839;-86
2023/08/16 09:36:36;;;;;;;;;2.20;2.20;;;;;;;;5058276;28;8852;-86
2023/08/16 09:39:08;;;;;;;;;4.40;4.40;;;;;;;;5051009;28;8859;-85
2023/08/16 09:41:36;;;;;;;;;3.00;3.00;;;;;;;;5049012;28;8867;-77
2023/08/16 09:44:06;;;;;;;;;4.00;3.80;;;;;;;;5053869;28;8867;-80
2023/08/16 09:46:33;;;;;;;;;2.40;2.40;;;;;;;;5052738;28;8852;-84
2023/08/16 09:49:09;;;;;;;;;2.40;2.40;;;;;;;;5049645;28;8864;-85
2023/08/16 09:51:38;;;;;;;;;4.00;4.00;;;;;;;;5052079;28;8941;-84
2023/08/16 09:54:11;;;;;;;;;3.20;3.20;;;;;;;;5052586;28;8859;-87
2023/08/16 09:56:39;;;;;;;;;3.60;1.80;;;;;;;;5051802;28;8894;-83
2023/08/16 09:59:07;;;;;;;;;1.80;1.80;;;;;;;;5052396;28;8852;-83
2023/08/16 10:01:36;;;;;;;;;2.00;2.00;;;;;;;;5050786;28;8919;-85
2023/08/16 10:04:04;;;;;;;;;4.80;3.60;;;;;;;;5051913;28;9445;-87
2023/08/16 10:06:34;;;;;;;;;2.20;2.20;;;;;;;;5051249;28;8867;-82
2023/08/16 10:09:04;;;;;;;;;2.00;2.00;;;;;;;;5051782;28;8844;-88
2023/08/16 10:11:34;;;;;;;;;2.00;2.00;;;;;;;;5051142;28;8848;-87
2023/08/16 10:14:03;;;;;;;;;2.20;2.00;;;;;;;;5051989;28;8836;-84
2023/08/16 10:16:31;;;;;;;;;2.00;2.00;;;;;;;;5051140;28;8852;-87
2023/08/16 10:19:00;;;;;;;;;1.60;1.60;;;;;;;;5051826;28;8878;-84
2023/08/16 10:21:29;;;;;;;;;2.00;2.00;;;;;;;;5054440;28;8840;-86
2023/08/16 10:23:58;;;;;;;;;2.00;2.00;;;;;;;;5059036;28;8860;-83
2023/08/16 10:26:30;;;;;;;;;1.20;1.20;;;;;;;;5043118;28;8866;-87
2023/08/16 10:29:00;;;;;;;;;3.00;2.00;;;;;;;;5054181;28;8859;-82
2023/08/16 10:31:31;;;;;;;;;1.20;1.20;;;;;;;;5054924;28;8807;-89
2023/08/16 10:33:59;;;;;;;;;2.00;2.00;;;;;;;;5056961;28;8978;-93
2023/08/16 10:36:26;;;;;;;;;3.60;3.40;;;;;;;;5057649;28;8840;-92
2023/08/16 10:38:59;;;;;;;;;4.80;3.20;;;;;;;;5054944;28;8828;-93
2023/08/16 10:41:26;;;;;;;;;3.00;1.60;;;;;;;;5055066;28;8990;-86
2023/08/16 10:43:54;;;;;;;;;2.00;2.00;;;;;;;;5052315;28;8867;-87
2023/08/16 10:46:28;;;;;;;;;1.00;1.00;;;;;;;;5050931;28;9607;-82
2023/08/16 10:48:59;;;;;;;;;1.00;1.00;;;;;;;;5050062;28;8979;-85
2023/08/16 10:51:26;;;;;;;;;1.40;1.40;;;;;;;;5055639;28;8832;-77
2023/08/16 10:53:58;;;;;;;;;1.00;1.00;;;;;;;;5049948;28;8874;-86
2023/08/16 10:56:28;;;;;;;;;1.40;1.40;;;;;;;;5050523;28;8858;-85
2023/08/16 10:58:56;;;;;;;;;1.00;1.00;;;;;;;;5053534;28;8959;-85
2023/08/16 11:01:34;;;;;;;;;1.00;1.00;;;;;;;;5055130;28;8784;-84
2023/08/16 11:04:02;;;;;;;;;0.20;0.20;;;;;;;;5052740;28;8945;-80
2023/08/16 11:06:32;;;;;;;;;1.40;1.40;;;;;;;;5051874;28;8836;-84
2023/08/16 11:09:02;;;;;;;;;1.00;1.00;;;;;;;;5051534;28;8848;-91
2023/08/16 11:11:29;;;;;;;;;1.80;1.80;;;;;;;;5051148;28;8860;-81
2023/08/16 11:14:00;;;;;;;;;1.00;1.00;;;;;;;;5049911;28;8840;-80
2023/08/16 11:16:27;;;;;;;;;1.60;1.60;;;;;;;;5051365;28;8868;-78
2023/08/16 11:18:59;;;;;;;;;1.00;1.00;;;;;;;;5051854;28;9009;-91
2023/08/16 11:21:26;;;;;;;;;1.00;1.00;;;;;;;;5050306;28;8848;-90
2023/08/16 11:23:55;;;;;;;;;2.00;2.00;;;;;;;;5049883;28;8848;-83
2023/08/16 11:26:24;;;;;;;;;1.00;1.00;;;;;;;;5046109;28;8986;-76
2023/08/16 11:28:51;;;;;;;;;0.00;0.00;;;;;;;;5050166;28;8862;-94
2023/08/16 11:31:18;;;;;;;;;1.20;1.20;;;;;;;;5051546;28;8821;-90
2023/08/16 11:33:45;;;;;;;;;2.00;2.00;;;;;;;;5049929;28;8856;-85
2023/08/16 11:36:13;;;;;;;;;1.00;1.00;;;;;;;;5052022;28;8858;-95
2023/08/16 11:38:43;;;;;;;;;1.40;1.40;;;;;;;;5057814;28;8862;-96
2023/08/16 11:41:11;;;;;;;;;0.00;0.00;;;;;;;;5048454;28;8852;-90
2023/08/16 11:43:40;;;;;;;;;4.20;3.60;;;;;;;;5055759;28;8882;-91
2023/08/16 11:46:07;;;;;;;;;1.80;0.40;;;;;;;;5064567;28;8851;-96
2023/08/16 11:48:36;;;;;;;;;1.40;1.20;;;;;;;;5050824;28;8889;-88
2023/08/16 11:51:03;;;;;;;;;0.00;0.00;;;;;;;;5050528;28;8836;-85
2023/08/16 11:53:32;;;;;;;;;1.00;1.00;;;;;;;;5049611;28;8843;-88
2023/08/16 11:56:00;;;;;;;;;1.60;1.60;;;;;;;;5049943;28;8848;-88
2023/08/16 11:58:28;;;;;;;;;1.00;1.00;;;;;;;;5050123;28;8860;-92
2023/08/16 12:01:03;;;;;;;;;1.80;1.60;;;;;;;;5050358;28;8789;-92
2023/08/16 12:03:33;;;;;;;;;1.40;1.40;;;;;;;;5051999;28;8840;-95
2023/08/16 12:06:06;;;;;;;;;1.60;1.60;;;;;;;;5053236;28;8840;-77
2023/08/16 12:08:33;;;;;;;;;2.00;2.00;;;;;;;;5054065;28;8868;-91
2023/08/16 12:11:00;;;;;;;;;2.00;2.00;;;;;;;;5053264;28;8855;-85
2023/08/16 12:13:27;;;;;;;;;2.40;2.40;;;;;;;;5053356;28;8832;-84
2023/08/16 12:15:56;;;;;;;;;1.60;1.60;;;;;;;;5055875;28;8970;-86
2023/08/16 12:18:23;;;;;;;;;1.00;1.00;;;;;;;;5055029;28;8886;-83
2023/08/16 12:20:52;;;;;;;;;2.80;1.60;;;;;;;;5049376;28;9698;-76
2023/08/16 12:23:20;;;;;;;;;2.40;2.40;;;;;;;;5049129;28;8848;-85
2023/08/16 12:25:47;;;;;;;;;0.00;0.00;;;;;;;;5047757;28;8835;-85
2023/08/16 12:28:15;;;;;;;;;1.20;1.20;;;;;;;;5048800;28;8974;-75
2023/08/16 12:30:42;;;;;;;;;2.00;2.00;;;;;;;;5047429;28;8792;-81
2023/08/16 12:33:12;;;;;;;;;2.00;2.00;;;;;;;;5048856;28;8841;-80
2023/08/16 12:35:39;;;;;;;;;3.20;3.00;;;;;;;;5048416;28;8836;-77
2023/08/16 12:38:07;;;;;;;;;2.00;2.00;;;;;;;;5048560;28;8968;-77
2023/08/16 12:40:34;;;;;;;;;2.20;2.20;;;;;;;;5047803;28;8828;-80
2023/08/16 12:43:02;;;;;;;;;1.40;1.40;;;;;;;;5048659;28;8958;-76
2023/08/16 12:45:29;;;;;;;;;2.00;2.00;;;;;;;;5049124;28;8865;-83
2023/08/16 12:47:56;;;;;;;;;2.80;2.80;;;;;;;;5050662;28;8852;-79
2023/08/16 12:50:25;;;;;;;;;1.80;1.80;;;;;;;;5049750;28;8868;-78
2023/08/16 12:52:52;;;;;;;;;1.20;1.20;;;;;;;;5048995;28;8855;-82
2023/08/16 12:55:20;;;;;;;;;2.00;2.00;;;;;;;;5047770;28;8855;-81
2023/08/16 12:57:47;;;;;;;;;1.40;1.40;;;;;;;;5049609;28;8925;-79
2023/08/16 13:00:15;;;;;;;;;2.40;2.40;;;;;;;;5048510;28;8865;-80
2023/08/16 13:02:43;;;;;;;;;1.00;1.00;;;;;;;;5048380;28;8910;-77
2023/08/16 13:05:10;;;;;;;;;1.60;1.60;;;;;;;;5047186;28;8878;-73
2023/08/16 13:07:40;;;;;;;;;2.60;2.60;;;;;;;;5046797;28;8978;-81
2023/08/16 13:10:09;;;;;;;;;4.00;4.00;;;;;;;;5047682;28;8848;-80
2023/08/16 13:12:36;;;;;;;;;3.00;3.00;;;;;;;;5047162;28;8878;-74
2023/08/16 13:15:03;;;;;;;;;2.60;2.60;;;;;;;;5035331;28;8828;-80
2023/08/16 13:17:31;;;;;;;;;3.00;3.00;;;;;;;;5046961;28;8824;-77
2023/08/16 13:19:58;;;;;;;;;2.00;2.00;;;;;;;;5047603;28;8859;-77
2023/08/16 13:22:25;;;;;;;;;3.00;3.00;;;;;;;;5046629;28;8868;-75
2023/08/16 13:24:53;;;;;;;;;3.00;3.00;;;;;;;;5050632;28;8848;-76
2023/08/16 13:27:21;;;;;;;;;2.80;2.80;;;;;;;;5051563;28;8860;-76
2023/08/16 13:29:48;;;;;;;;;2.60;2.60;;;;;;;;5051981;28;8870;-80
2023/08/16 13:32:15;;;;;;;;;2.60;2.60;;;;;;;;5050991;28;8931;-82
2023/08/16 13:34:43;;;;;;;;;3.00;3.00;;;;;;;;5052309;28;8966;-82
2023/08/16 13:37:10;;;;;;;;;3.20;3.20;;;;;;;;5052941;28;8828;-84
2023/08/16 13:39:37;;;;;;;;;2.20;2.20;;;;;;;;5054238;28;8848;-85
2023/08/16 13:42:06;;;;;;;;;3.00;3.00;;;;;;;;5055095;28;8844;-85
2023/08/16 13:44:34;;;;;;;;;3.00;3.00;;;;;;;;5055767;28;9003;-79
2023/08/16 13:47:03;;;;;;;;;3.60;3.60;;;;;;;;5056029;28;8828;-79
2023/08/16 13:49:30;;;;;;;;;3.00;3.00;;;;;;;;5056092;28;8844;-74
2023/08/16 13:51:58;;;;;;;;;4.00;4.00;;;;;;;;5052579;28;8890;-72
2023/08/16 13:54:25;;;;;;;;;3.00;3.00;;;;;;;;5051064;28;8852;-74
2023/08/16 13:56:52;;;;;;;;;4.80;3.00;;;;;;;;5051317;28;8848;-77
2023/08/16 13:59:21;;;;;;;;;3.00;3.00;;;;;;;;5041318;28;8829;-76
2023/08/16 14:01:48;;;;;;;;;3.00;3.00;;;;;;;;5050265;28;8809;-72
2023/08/16 14:04:15;;;;;;;;;3.00;3.00;;;;;;;;5051420;28;8974;-72
2023/08/16 14:06:43;;;;;;;;;4.00;4.00;;;;;;;;5049322;28;8835;-74
2023/08/16 14:09:10;;;;;;;;;4.00;4.00;;;;;;;;5050967;28;8856;-74
2023/08/16 14:11:37;;;;;;;;;2.00;2.00;;;;;;;;5049283;28;9602;-73
2023/08/16 14:14:05;;;;;;;;;4.00;4.00;;;;;;;;5050667;28;8874;-74
2023/08/16 14:16:34;;;;;;;;;2.00;2.00;;;;;;;;5049914;28;8832;-72
2023/08/16 14:19:01;;;;;;;;;2.60;2.60;;;;;;;;5051037;28;8824;-74
2023/08/16 14:21:28;;;;;;;;;2.40;2.40;;;;;;;;5051198;28;8832;-72
2023/08/16 14:23:55;;;;;;;;;1.20;1.20;;;;;;;;5052464;28;8942;-71
2023/08/16 14:26:22;;;;;;;;;3.00;3.00;;;;;;;;5051501;28;8840;-79
2023/08/16 14:28:50;;;;;;;;;3.80;3.80;;;;;;;;5051500;28;8973;-77
2023/08/16 14:31:17;;;;;;;;;3.80;3.00;;;;;;;;5050798;28;8807;-76
2023/08/16 14:33:45;;;;;;;;;3.00;3.00;;;;;;;;5050700;28;8844;-75
2023/08/16 14:36:13;;;;;;;;;3.60;3.60;;;;;;;;5049372;28;8960;-78
2023/08/16 14:38:40;;;;;;;;;4.00;2.60;;;;;;;;5049715;28;8882;-76
2023/08/16 14:41:07;;;;;;;;;5.60;4.80;;;;;;;;5049981;28;8860;-77
2023/08/16 14:43:34;;;;;;;;;4.00;4.00;;;;;;;;5050246;28;8840;-81
2023/08/16 14:46:01;;;;;;;;;3.80;3.80;;;;;;;;5050891;28;8866;-84
2023/08/16 14:48:28;;;;;;;;;4.00;4.00;;;;;;;;5050237;28;8982;-80
2023/08/16 14:50:57;;;;;;;;;3.60;3.60;;;;;;;;5050062;28;8951;-74
2023/08/16 14:53:24;;;;;;;;;3.00;3.00;;;;;;;;5049628;28;8850;-82
2023/08/16 14:55:53;;;;;;;;;6.00;3.60;;;;;;;;5050139;28;8844;-76
2023/08/16 14:58:21;;;;;;;;;5.20;3.20;;;;;;;;5052233;28;8935;-81
2023/08/16 15:00:48;;;;;;;;;3.80;3.80;;;;;;;;5051569;28;8777;-74
2023/08/16 15:03:15;;;;;;;;;3.20;3.20;;;;;;;;5050269;28;8840;-84